Weather at Best Western Red Jacket Inn Heliport [CLOSED]

Public forecast

Using degrees Fahrenheit for public forecast. Weather courtesy of forecast.io.

Closest aviation weather report (METAR) to Best Western Red Jacket Inn Heliport

Closest report is Niagara Falls International Airport, 2.7 nm (5.0 km) NE. Retrieved 2020/09/22 05:53 UTC (1 hour ago):

KIAG 220553Z AUTO 00000KT 10SM CLR 08/04 RMK AO2 SLPNO T00780039 10122 20072

Closest aviation forecast (TAF) to Best Western Red Jacket Inn Heliport

Closest forecast is Niagara Falls International Airport, 2.7 nm (5.0 km) NE. Retrieved 2020/09/22 06:36 UTC (22 minutes ago):

TAF KIAG 220533Z 2206/2306 00000KT P6SM SKC FM221400 25004KT P6SM FEW250 FM221700 28006KT P6SM FEW250 FM222100 25008KT P6SM FEW250